createdAt,value
2022-09-19T00:01:19.275Z,98384.72
2022-09-19T00:02:20.802Z,98386.19
2022-09-19T00:03:22.257Z,98385.94
2022-09-19T00:04:27.881Z,98382.84
2022-09-19T00:05:29.578Z,98378.94
2022-09-19T00:06:33.324Z,98389.97
2022-09-19T00:07:34.743Z,98383.56
2022-09-19T00:08:36.526Z,98385.22
2022-09-19T00:09:37.973Z,98392.97
2022-09-19T00:10:40.696Z,98385.59
2022-09-19T00:11:44.355Z,98384.75
2022-09-19T00:12:45.786Z,98384.56
2022-09-19T00:13:48.715Z,98378.94
2022-09-19T00:14:50.127Z,98379.09
2022-09-19T00:15:51.465Z,98382.56
2022-09-19T00:17:11.077Z,98380.41
2022-09-19T00:18:12.517Z,98386.66
2022-09-19T00:19:18.939Z,98386.66
2022-09-19T00:20:20.430Z,98383.34
2022-09-19T00:21:31.120Z,98386.00
2022-09-19T00:22:32.527Z,98391.91
2022-09-19T00:23:33.871Z,98387.63
2022-09-19T00:24:35.257Z,98385.63
2022-09-19T00:25:36.599Z,98386.31
2022-09-19T00:26:38.728Z,98386.31
2022-09-19T00:27:40.155Z,98386.16
2022-09-19T00:28:41.506Z,98385.84
2022-09-19T00:29:43.196Z,98386.50
2022-09-19T00:30:44.820Z,98380.41
2022-09-19T00:31:46.231Z,98381.09
2022-09-19T00:32:47.650Z,98389.16
2022-09-19T00:33:49.507Z,98383.56
2022-09-19T00:34:51.967Z,98381.78
2022-09-19T00:35:53.866Z,98377.19
2022-09-19T00:36:55.326Z,98388.47
2022-09-19T00:37:56.741Z,98383.34
2022-09-19T00:38:58.074Z,98386.50
2022-09-19T00:39:59.553Z,98388.03
2022-09-19T00:41:00.999Z,98386.06
2022-09-19T00:42:02.399Z,98387.03
2022-09-19T00:43:03.822Z,98390.66
2022-09-19T00:44:06.320Z,98392.97
2022-09-19T00:45:14.720Z,98390.19
2022-09-19T00:46:16.482Z,98387.38
2022-09-19T00:47:21.005Z,98394.16
2022-09-19T00:48:23.612Z,98387.78
2022-09-19T00:49:27.555Z,98384.81
2022-09-19T00:50:29.932Z,98383.97
2022-09-19T00:51:38.127Z,98383.97
2022-09-19T00:53:14.414Z,98384.16
2022-09-19T00:54:20.499Z,98374.63
2022-09-19T00:55:22.026Z,98379.03
2022-09-19T00:56:23.482Z,98379.03
2022-09-19T00:57:29.702Z,98377.25
2022-09-19T00:58:35.253Z,98379.88
2022-09-19T00:59:39.021Z,98381.00
2022-09-19T01:00:40.893Z,98383.78
2022-09-19T01:01:43.410Z,98376.56
2022-09-19T01:02:45.220Z,98382.50
2022-09-19T01:03:46.793Z,98373.63
2022-09-19T01:04:48.286Z,98383.84
2022-09-19T01:06:26.344Z,98385.63
2022-09-19T01:07:49.442Z,98384.97
2022-09-19T01:09:06.270Z,98387.78
2022-09-19T01:10:26.567Z,98377.25
2022-09-19T01:11:53.059Z,98382.13
2022-09-19T01:13:12.010Z,98382.97
2022-09-19T01:14:16.335Z,98383.09
2022-09-19T01:15:55.314Z,98387.38
2022-09-19T01:17:10.011Z,98377.84
2022-09-19T01:18:11.991Z,98387.56
2022-09-19T01:19:25.991Z,98381.59
2022-09-19T01:20:42.602Z,98383.28
2022-09-19T01:21:59.972Z,98382.97
2022-09-19T01:23:40.042Z,98380.16
2022-09-19T01:24:57.281Z,98384.31
2022-09-19T01:26:30.926Z,98385.06
2022-09-19T01:28:14.808Z,98382.47
2022-09-19T01:29:37.718Z,98388.78
2022-09-19T01:30:49.135Z,98389.50
2022-09-19T01:31:55.403Z,98384.66
2022-09-19T01:33:10.053Z,98391.56
2022-09-19T01:34:27.735Z,98387.41
2022-09-19T01:35:34.507Z,98387.06
2022-09-19T01:36:46.510Z,98392.00
2022-09-19T01:38:12.175Z,98389.06
2022-09-19T01:39:18.567Z,98389.56
2022-09-19T01:40:24.599Z,98385.72
2022-09-19T01:41:32.319Z,98392.97
2022-09-19T01:42:34.307Z,98392.75
2022-09-19T01:43:36.234Z,98391.25
2022-09-19T01:44:37.838Z,98392.66
2022-09-19T01:45:39.727Z,98392.00
2022-09-19T01:46:53.304Z,98390.44
2022-09-19T01:48:04.970Z,98392.38
2022-09-19T01:49:12.623Z,98393.81
2022-09-19T01:50:40.559Z,98399.44
2022-09-19T01:51:50.347Z,98396.50
2022-09-19T01:53:03.851Z,98398.53
2022-09-19T01:54:21.349Z,98403.19
2022-09-19T01:55:51.031Z,98407.56
2022-09-19T01:57:01.059Z,98392.84
2022-09-19T01:58:24.199Z,98400.28
2022-09-19T01:59:26.298Z,98405.06
2022-09-19T02:00:28.445Z,98401.31
2022-09-19T02:01:41.767Z,98405.00
2022-09-19T02:03:06.104Z,98402.06
2022-09-19T02:04:25.071Z,98407.19
2022-09-19T02:05:35.684Z,98410.81
2022-09-19T02:06:45.608Z,98411.84
2022-09-19T02:08:00.019Z,98406.28
2022-09-19T02:09:16.781Z,98399.66
2022-09-19T02:10:55.389Z,98406.50
2022-09-19T02:12:02.319Z,98406.88
2022-09-19T02:13:07.677Z,98412.81
2022-09-19T02:14:36.010Z,98399.97
2022-09-19T02:15:41.187Z,98406.03
2022-09-19T02:16:49.180Z,98407.25
2022-09-19T02:17:56.689Z,98415.66
2022-09-19T02:19:14.924Z,98411.69
2022-09-19T02:20:26.093Z,98402.22
2022-09-19T02:21:47.555Z,98408.59
2022-09-19T02:22:55.051Z,98406.13
2022-09-19T02:23:58.868Z,98398.25
2022-09-19T02:25:07.121Z,98404.69
2022-09-19T02:26:09.007Z,98407.97
2022-09-19T02:27:21.291Z,98407.53
2022-09-19T02:28:29.469Z,98413.78
2022-09-19T02:29:33.402Z,98413.22
2022-09-19T02:30:37.031Z,98410.16
2022-09-19T02:31:40.027Z,98409.34
2022-09-19T02:32:42.523Z,98407.84
2022-09-19T02:33:45.068Z,98411.75
2022-09-19T02:34:51.976Z,98402.13
2022-09-19T02:36:06.705Z,98403.78
2022-09-19T02:37:14.780Z,98408.78
2022-09-19T02:39:03.840Z,98407.41
2022-09-19T02:40:33.737Z,98402.03
2022-09-19T02:41:44.004Z,98409.53
2022-09-19T02:43:10.426Z,98406.34
2022-09-19T02:44:20.371Z,98404.09
2022-09-19T02:45:35.108Z,98405.31
2022-09-19T02:47:00.671Z,98403.97
2022-09-19T02:48:20.559Z,98402.16
2022-09-19T02:49:50.740Z,98400.00
2022-09-19T02:51:08.374Z,98403.72
2022-09-19T02:52:17.298Z,98406.78
2022-09-19T02:53:24.916Z,98394.50
2022-09-19T02:54:34.531Z,98401.84
2022-09-19T02:55:41.823Z,98395.91
2022-09-19T02:56:45.672Z,98399.06
2022-09-19T02:57:51.034Z,98402.13
2022-09-19T02:59:02.736Z,98395.63
2022-09-19T03:00:18.863Z,98404.41
2022-09-19T03:01:26.840Z,98400.97
2022-09-19T03:02:33.877Z,98399.28
2022-09-19T03:03:41.391Z,98397.94
2022-09-19T03:04:48.430Z,98409.19
2022-09-19T03:05:51.378Z,98409.31
2022-09-19T03:06:55.891Z,98404.59
2022-09-19T03:08:08.947Z,98405.03
2022-09-19T03:09:14.295Z,98405.47
2022-09-19T03:10:22.425Z,98405.63
2022-09-19T03:11:43.461Z,98404.66
2022-09-19T03:12:53.644Z,98401.59
2022-09-19T03:13:55.920Z,98401.44
2022-09-19T03:14:57.482Z,98407.28
2022-09-19T03:16:05.066Z,98399.53
2022-09-19T03:17:12.319Z,98395.41
2022-09-19T03:18:16.876Z,98402.47
2022-09-19T03:19:18.395Z,98399.09
2022-09-19T03:20:20.478Z,98406.59
2022-09-19T03:21:26.647Z,98401.63
2022-09-19T03:22:28.092Z,98402.75
2022-09-19T03:23:39.814Z,98404.72
2022-09-19T03:24:43.005Z,98409.94
2022-09-19T03:25:45.428Z,98399.00
2022-09-19T03:26:47.541Z,98406.69
2022-09-19T03:27:49.005Z,98403.94
2022-09-19T03:28:52.440Z,98405.44
2022-09-19T03:29:53.864Z,98405.34
2022-09-19T03:30:55.228Z,98410.72
2022-09-19T03:31:56.913Z,98406.84
2022-09-19T03:32:58.468Z,98411.81
2022-09-19T03:33:59.929Z,98406.00
2022-09-19T03:35:01.506Z,98412.47
2022-09-19T03:36:04.495Z,98409.28
2022-09-19T03:37:05.947Z,98413.50
2022-09-19T03:38:09.474Z,98408.78
2022-09-19T03:39:10.978Z,98405.72
2022-09-19T03:40:17.505Z,98412.75
2022-09-19T03:41:21.690Z,98414.84
2022-09-19T03:42:23.259Z,98418.19
2022-09-19T03:43:24.699Z,98420.81
2022-09-19T03:44:26.125Z,98409.84
2022-09-19T03:45:27.637Z,98411.75
2022-09-19T03:46:32.983Z,98418.19
2022-09-19T03:47:34.981Z,98416.63
2022-09-19T03:48:36.485Z,98412.88
2022-09-19T03:49:37.985Z,98417.69
2022-09-19T03:50:39.407Z,98422.50
2022-09-19T03:51:45.998Z,98420.84
2022-09-19T03:52:47.354Z,98421.38
2022-09-19T03:53:48.864Z,98422.22
2022-09-19T03:54:54.293Z,98419.13
2022-09-19T03:55:55.737Z,98420.78
2022-09-19T03:56:57.081Z,98416.34
2022-09-19T03:57:59.075Z,98420.47
2022-09-19T03:59:00.860Z,98416.06
2022-09-19T04:00:04.392Z,98423.78
2022-09-19T04:01:08.308Z,98419.06
2022-09-19T04:02:11.414Z,98416.13
2022-09-19T04:03:13.022Z,98418.59
2022-09-19T04:04:15.160Z,98420.13
2022-09-19T04:05:20.688Z,98416.34
2022-09-19T04:06:22.453Z,98418.97
2022-09-19T04:07:23.990Z,98414.69
2022-09-19T04:08:25.579Z,98418.16
2022-09-19T04:09:27.475Z,98419.63
2022-09-19T04:10:32.395Z,98417.72
2022-09-19T04:11:33.750Z,98418.50
2022-09-19T04:12:35.179Z,98418.69
2022-09-19T04:13:36.903Z,98417.53
2022-09-19T04:14:45.556Z,98416.06
2022-09-19T04:15:47.301Z,98426.72
2022-09-19T04:17:07.398Z,98421.59
2022-09-19T04:18:11.376Z,98423.69
2022-09-19T04:19:13.599Z,98424.66
2022-09-19T04:20:38.182Z,98430.91
2022-09-19T04:21:58.389Z,98428.59
2022-09-19T04:23:22.632Z,98431.06
2022-09-19T04:24:44.343Z,98427.91
2022-09-19T04:26:15.560Z,98427.81
2022-09-19T04:27:21.065Z,98426.34
2022-09-19T04:28:24.214Z,98429.91
2022-09-19T04:29:25.669Z,98429.25
2022-09-19T04:30:27.012Z,98438.09
2022-09-19T04:31:32.054Z,98434.13
2022-09-19T04:32:33.684Z,98438.31
2022-09-19T04:33:35.807Z,98440.88
2022-09-19T04:34:37.642Z,98431.31
2022-09-19T04:35:39.975Z,98436.56
2022-09-19T04:36:43.231Z,98435.75
2022-09-19T04:37:45.129Z,98431.31
2022-09-19T04:38:50.334Z,98434.66
2022-09-19T04:39:58.068Z,98443.03
2022-09-19T04:41:02.326Z,98436.97
2022-09-19T04:42:05.838Z,98436.00
2022-09-19T04:43:11.749Z,98440.94
2022-09-19T04:44:15.554Z,98444.41
2022-09-19T04:45:28.427Z,98444.25
2022-09-19T04:46:49.455Z,98449.22
2022-09-19T04:47:50.990Z,98445.09
2022-09-19T04:48:53.231Z,98449.22
2022-09-19T04:50:03.886Z,98445.47
2022-09-19T04:51:08.102Z,98451.41
2022-09-19T04:52:10.535Z,98447.81
2022-09-19T04:53:12.423Z,98445.47
2022-09-19T04:54:13.955Z,98440.50
2022-09-19T04:55:15.579Z,98446.88
2022-09-19T04:56:17.223Z,98454.38
2022-09-19T04:57:18.671Z,98451.22
2022-09-19T04:58:21.853Z,98448.91
2022-09-19T04:59:23.510Z,98452.34
2022-09-19T05:00:25.734Z,98454.81
2022-09-19T05:01:27.623Z,98455.38
2022-09-19T05:02:29.278Z,98453.28
2022-09-19T05:03:30.753Z,98453.53
2022-09-19T05:04:33.930Z,98456.97
2022-09-19T05:05:37.013Z,98455.09
2022-09-19T05:06:39.482Z,98456.59
2022-09-19T05:07:46.306Z,98460.56
2022-09-19T05:08:48.248Z,98461.25
2022-09-19T05:09:57.503Z,98460.81
2022-09-19T05:11:08.415Z,98468.56
2022-09-19T05:12:10.819Z,98465.09
2022-09-19T05:13:18.583Z,98467.41
2022-09-19T05:14:20.292Z,98467.16
2022-09-19T05:15:28.271Z,98469.78
2022-09-19T05:16:29.781Z,98471.69
2022-09-19T05:17:34.326Z,98472.00
2022-09-19T05:18:35.772Z,98468.25
2022-09-19T05:19:37.221Z,98473.34
2022-09-19T05:20:40.420Z,98476.81
2022-09-19T05:21:41.833Z,98480.41
2022-09-19T05:22:43.942Z,98477.50
2022-09-19T05:23:45.394Z,98472.16
2022-09-19T05:24:46.758Z,98476.88
2022-09-19T05:25:48.194Z,98483.38
2022-09-19T05:26:49.543Z,98475.38
2022-09-19T05:27:52.064Z,98478.66
2022-09-19T05:28:54.351Z,98482.94
2022-09-19T05:29:58.340Z,98481.16
2022-09-19T05:31:00.804Z,98490.09
2022-09-19T05:32:04.531Z,98487.88
2022-09-19T05:33:29.018Z,98480.91
2022-09-19T05:34:33.599Z,98487.94
2022-09-19T05:35:35.114Z,98488.13
2022-09-19T05:36:55.158Z,98487.53
2022-09-19T05:38:24.858Z,98494.41
2022-09-19T05:39:26.203Z,98497.09
2022-09-19T05:40:57.046Z,98500.75
2022-09-19T05:42:17.131Z,98496.06
2022-09-19T05:43:19.662Z,98493.38
2022-09-19T05:44:21.970Z,98503.13
2022-09-19T05:45:28.583Z,98499.53
2022-09-19T05:46:31.596Z,98500.88
2022-09-19T05:47:33.263Z,98500.97
2022-09-19T05:48:34.614Z,98498.75
2022-09-19T05:49:36.076Z,98503.53
2022-09-19T05:50:37.843Z,98501.81
2022-09-19T05:51:40.263Z,98501.41
2022-09-19T05:52:46.063Z,98502.09
2022-09-19T05:53:48.586Z,98507.34
2022-09-19T05:55:13.011Z,98513.47
2022-09-19T05:56:24.611Z,98504.94
2022-09-19T05:57:32.990Z,98504.19
2022-09-19T05:58:34.322Z,98510.31
2022-09-19T05:59:35.835Z,98518.28
2022-09-19T06:00:37.882Z,98521.25
2022-09-19T06:01:40.295Z,98523.59
2022-09-19T06:02:59.596Z,98521.16
2022-09-19T06:04:01.434Z,98522.19
2022-09-19T06:05:04.299Z,98530.19
2022-09-19T06:06:12.409Z,98524.38
2022-09-19T06:07:13.851Z,98523.53
2022-09-19T06:08:21.017Z,98531.44
2022-09-19T06:09:22.518Z,98522.25
2022-09-19T06:10:28.527Z,98527.22
2022-09-19T06:11:30.939Z,98524.25
2022-09-19T06:12:32.403Z,98529.28
2022-09-19T06:13:33.909Z,98530.28
2022-09-19T06:14:35.367Z,98521.69
2022-09-19T06:15:38.770Z,98524.78
2022-09-19T06:16:40.398Z,98525.38
2022-09-19T06:18:00.285Z,98526.66
2022-09-19T06:19:15.747Z,98528.41
2022-09-19T06:20:17.971Z,98533.81
2022-09-19T06:21:34.274Z,98533.81
2022-09-19T06:22:36.299Z,98534.91
2022-09-19T06:23:37.892Z,98530.63
2022-09-19T06:24:39.287Z,98536.19
2022-09-19T06:25:42.402Z,98542.75
2022-09-19T06:26:44.528Z,98536.25
2022-09-19T06:27:53.086Z,98534.88
2022-09-19T06:28:54.768Z,98545.69
2022-09-19T06:29:56.198Z,98544.13
2022-09-19T06:31:04.272Z,98545.38
2022-09-19T06:32:13.293Z,98544.59
2022-09-19T06:33:18.078Z,98548.69
2022-09-19T06:34:56.728Z,98547.56
2022-09-19T06:35:59.022Z,98544.88
2022-09-19T06:37:01.487Z,98550.56
2022-09-19T06:38:05.419Z,98560.31
2022-09-19T06:39:06.833Z,98556.03
2022-09-19T06:40:16.509Z,98555.38
2022-09-19T06:41:25.199Z,98560.75
2022-09-19T06:42:43.731Z,98549.69
2022-09-19T06:44:23.521Z,98561.63
2022-09-19T06:45:40.417Z,98564.13
2022-09-19T06:46:55.450Z,98571.31
2022-09-19T06:48:12.694Z,98571.88
2022-09-19T06:49:20.719Z,98569.25
2022-09-19T06:50:30.198Z,98576.47
2022-09-19T06:51:35.494Z,98571.34
2022-09-19T06:52:38.180Z,98575.50
2022-09-19T06:53:41.199Z,98571.06
2022-09-19T06:54:44.238Z,98576.16
2022-09-19T06:55:47.522Z,98581.84
2022-09-19T06:56:53.401Z,98574.38
2022-09-19T06:58:05.808Z,98577.81
2022-09-19T06:59:07.985Z,98580.44
2022-09-19T07:00:10.087Z,98583.00
2022-09-19T07:01:11.656Z,98588.09
2022-09-19T07:02:14.071Z,98583.00
2022-09-19T07:03:17.519Z,98589.00
2022-09-19T07:04:23.830Z,98582.53
2022-09-19T07:05:42.784Z,98590.16
2022-09-19T07:06:56.586Z,98593.63
2022-09-19T07:07:58.467Z,98597.50
2022-09-19T07:08:59.898Z,98598.28
2022-09-19T07:10:01.277Z,98598.16
2022-09-19T07:11:02.935Z,98596.94
2022-09-19T07:12:09.686Z,98603.03
2022-09-19T07:13:13.286Z,98601.78
2022-09-19T07:14:14.802Z,98607.16
2022-09-19T07:15:16.243Z,98597.06
2022-09-19T07:16:19.149Z,98605.66
2022-09-19T07:17:20.739Z,98608.28
2022-09-19T07:18:23.771Z,98612.88
2022-09-19T07:19:26.822Z,98602.88
2022-09-19T07:20:46.777Z,98615.63
2022-09-19T07:21:53.439Z,98607.91
2022-09-19T07:23:11.312Z,98606.69
2022-09-19T07:24:33.043Z,98612.78
2022-09-19T07:25:55.939Z,98612.06
2022-09-19T07:26:57.427Z,98615.50
2022-09-19T07:28:04.605Z,98610.75
2022-09-19T07:29:07.351Z,98608.97
2022-09-19T07:30:09.698Z,98620.41
2022-09-19T07:31:11.182Z,98610.75
2022-09-19T07:32:15.251Z,98611.25
2022-09-19T07:33:20.647Z,98615.50
2022-09-19T07:34:22.175Z,98615.50
2022-09-19T07:35:35.439Z,98617.25
2022-09-19T07:36:37.648Z,98619.69
2022-09-19T07:37:39.131Z,98623.25
2022-09-19T07:39:02.015Z,98622.72
2022-09-19T07:40:30.815Z,98632.66
2022-09-19T07:41:39.175Z,98626.41
2022-09-19T07:43:02.298Z,98634.00
2022-09-19T07:44:23.522Z,98629.03
2022-09-19T07:45:47.530Z,98631.88
2022-09-19T07:47:12.582Z,98633.53
2022-09-19T07:48:38.494Z,98628.94
2022-09-19T07:50:00.163Z,98631.50
2022-09-19T07:51:11.488Z,98624.81
2022-09-19T07:52:14.454Z,98632.56
2022-09-19T07:53:21.158Z,98629.34
2022-09-19T07:54:22.583Z,98631.81
2022-09-19T07:55:24.004Z,98631.25
2022-09-19T07:56:25.639Z,98628.00
2022-09-19T07:57:29.076Z,98628.22
2022-09-19T07:58:30.781Z,98619.06
2022-09-19T07:59:35.761Z,98615.28
2022-09-19T08:00:39.670Z,98618.13
2022-09-19T08:01:41.354Z,98618.97
2022-09-19T08:03:01.123Z,98619.78
2022-09-19T08:04:04.406Z,98620.72
2022-09-19T08:05:19.188Z,98623.69
2022-09-19T08:06:24.446Z,98624.91
2022-09-19T08:07:26.326Z,98631.16
2022-09-19T08:08:27.801Z,98630.31
2022-09-19T08:09:30.858Z,98625.03
2022-09-19T08:10:47.470Z,98629.28
2022-09-19T08:11:50.820Z,98630.09
2022-09-19T08:12:52.615Z,98627.84
2022-09-19T08:13:54.141Z,98627.75
2022-09-19T08:14:57.773Z,98635.56
2022-09-19T08:16:03.251Z,98632.66
2022-09-19T08:17:05.520Z,98638.34
2022-09-19T08:18:13.019Z,98634.47
2022-09-19T08:19:14.454Z,98637.03
2022-09-19T08:20:17.102Z,98637.06
2022-09-19T08:21:20.475Z,98631.19
2022-09-19T08:22:22.042Z,98635.34
2022-09-19T08:23:30.253Z,98639.03
2022-09-19T08:24:33.639Z,98638.56
2022-09-19T08:25:43.578Z,98641.16
2022-09-19T08:26:46.175Z,98640.81
2022-09-19T08:27:48.370Z,98644.56
2022-09-19T08:28:50.007Z,98645.25
2022-09-19T08:29:52.127Z,98642.75
2022-09-19T08:30:59.725Z,98643.91
2022-09-19T08:32:01.425Z,98646.69
2022-09-19T08:33:04.199Z,98648.00
2022-09-19T08:34:05.702Z,98645.50
2022-09-19T08:35:07.482Z,98647.16
2022-09-19T08:36:08.923Z,98654.59
2022-09-19T08:37:10.563Z,98650.84
2022-09-19T08:38:16.266Z,98652.63
2022-09-19T08:39:17.967Z,98651.41
2022-09-19T08:40:23.032Z,98654.03
2022-09-19T08:41:33.525Z,98661.56
2022-09-19T08:42:49.333Z,98655.03
2022-09-19T08:44:17.892Z,98654.69
2022-09-19T08:45:28.581Z,98654.09
2022-09-19T08:46:52.278Z,98662.38
2022-09-19T08:47:54.895Z,98660.53
2022-09-19T08:49:06.499Z,98661.84
2022-09-19T08:50:22.600Z,98658.75
2022-09-19T08:51:37.403Z,98659.41
2022-09-19T08:52:50.382Z,98663.38
2022-09-19T08:54:35.656Z,98660.13
2022-09-19T08:55:41.570Z,98663.63
2022-09-19T08:56:49.462Z,98662.16
2022-09-19T08:57:55.717Z,98659.88
2022-09-19T08:59:02.939Z,98663.19
2022-09-19T09:00:32.071Z,98660.44
2022-09-19T09:01:38.089Z,98663.75
2022-09-19T09:03:08.565Z,98666.53
2022-09-19T09:04:15.121Z,98659.00
2022-09-19T09:05:36.694Z,98664.44
2022-09-19T09:06:52.616Z,98660.13
2022-09-19T09:08:09.319Z,98666.03
2022-09-19T09:09:48.456Z,98665.66
2022-09-19T09:10:54.186Z,98667.50
2022-09-19T09:12:26.263Z,98674.78
2022-09-19T09:13:58.946Z,98669.50
2022-09-19T09:15:37.908Z,98673.97
2022-09-19T09:16:57.209Z,98676.78
2022-09-19T09:18:24.342Z,98679.09
2022-09-19T09:19:47.755Z,98680.97
2022-09-19T09:21:15.832Z,98675.72
2022-09-19T09:22:28.504Z,98672.66
2022-09-19T09:23:52.303Z,98678.44
2022-09-19T09:25:22.383Z,98671.22
2022-09-19T09:26:32.290Z,98671.28
2022-09-19T09:28:01.162Z,98672.94
2022-09-19T09:29:23.845Z,98666.34
2022-09-19T09:30:41.197Z,98667.34
2022-09-19T09:31:51.482Z,98671.00
2022-09-19T09:33:23.491Z,98663.06
2022-09-19T09:34:28.932Z,98672.78
2022-09-19T09:35:41.582Z,98671.94
2022-09-19T09:37:18.071Z,98676.88
2022-09-19T09:38:31.971Z,98673.56
2022-09-19T09:39:48.979Z,98668.81
2022-09-19T09:40:56.327Z,98674.25
2022-09-19T09:42:02.303Z,98671.75
2022-09-19T09:43:08.499Z,98671.06
2022-09-19T09:44:13.324Z,98674.78
2022-09-19T09:45:25.306Z,98677.75
2022-09-19T09:46:50.815Z,98684.34
2022-09-19T09:48:38.441Z,98683.56
2022-09-19T09:49:57.762Z,98680.91
2022-09-19T09:51:06.479Z,98688.47
2022-09-19T09:52:25.701Z,98695.00
2022-09-19T09:53:58.158Z,98696.97
2022-09-19T09:55:34.317Z,98699.03
2022-09-19T09:56:50.839Z,98695.19
2022-09-19T09:58:18.179Z,98691.47
2022-09-19T09:59:43.725Z,98691.75
2022-09-19T10:00:51.329Z,98687.81
2022-09-19T10:02:00.746Z,98690.50
2022-09-19T10:03:37.768Z,98689.06
2022-09-19T10:04:56.938Z,98688.44
2022-09-19T10:06:05.999Z,98683.88
2022-09-19T10:07:27.365Z,98688.84
2022-09-19T10:08:37.735Z,98689.75
2022-09-19T10:10:02.890Z,98689.16
2022-09-19T10:13:01.384Z,98693.56
2022-09-19T10:14:04.768Z,98690.47
2022-09-19T10:15:17.439Z,98700.56
2022-09-19T10:16:25.275Z,98695.06
2022-09-19T10:17:34.240Z,98693.72
2022-09-19T10:19:14.947Z,98693.94
2022-09-19T10:20:22.303Z,98696.78
2022-09-19T10:21:24.008Z,98703.97
2022-09-19T10:22:28.488Z,98701.88
2022-09-19T10:23:36.360Z,98700.94
2022-09-19T10:24:45.716Z,98701.47
2022-09-19T10:25:58.766Z,98697.69
2022-09-19T10:27:00.326Z,98698.50
2022-09-19T10:28:28.142Z,98692.13
2022-09-19T10:30:00.886Z,98699.22
2022-09-19T10:31:03.877Z,98698.69
2022-09-19T10:32:09.065Z,98696.84
2022-09-19T10:33:41.951Z,98695.19
2022-09-19T10:34:49.326Z,98691.81
2022-09-19T10:36:04.856Z,98699.22
2022-09-19T10:37:13.134Z,98700.88
2022-09-19T10:38:18.522Z,98700.69
2022-09-19T10:39:22.766Z,98703.69
2022-09-19T10:40:24.296Z,98698.59
2022-09-19T10:41:28.811Z,98703.72
2022-09-19T10:42:38.472Z,98710.84
2022-09-19T10:43:51.407Z,98707.16
2022-09-19T10:44:54.788Z,98699.88
2022-09-19T10:45:56.853Z,98706.00
2022-09-19T10:47:02.991Z,98721.88
2022-09-19T10:48:32.948Z,98724.50
2022-09-19T10:49:48.567Z,98725.16
2022-09-19T10:50:56.636Z,98727.09
2022-09-19T10:51:59.875Z,98728.22
2022-09-19T10:53:04.971Z,98724.41
2022-09-19T10:54:11.895Z,98725.75
2022-09-19T10:55:19.089Z,98725.06
2022-09-19T10:56:27.047Z,98725.59
2022-09-19T10:57:46.549Z,98727.22
2022-09-19T10:59:24.818Z,98733.16
2022-09-19T11:00:46.427Z,98727.75
2022-09-19T11:02:11.005Z,98718.66
2022-09-19T11:03:19.573Z,98724.75
2022-09-19T11:04:24.698Z,98729.41
2022-09-19T11:05:32.439Z,98728.22
2022-09-19T11:06:35.056Z,98737.63
2022-09-19T11:07:49.918Z,98734.97
2022-09-19T11:08:56.475Z,98728.06
2022-09-19T11:10:32.487Z,98737.44
2022-09-19T11:11:44.201Z,98739.91
2022-09-19T11:12:48.545Z,98737.59
2022-09-19T11:14:07.446Z,98730.66
2022-09-19T11:15:13.595Z,98733.16
2022-09-19T11:16:29.529Z,98748.13
2022-09-19T11:18:08.629Z,98740.09
2022-09-19T11:19:34.476Z,98748.69
2022-09-19T11:21:13.598Z,98742.47
2022-09-19T11:22:33.375Z,98745.16
2022-09-19T11:24:09.516Z,98746.50
2022-09-19T11:25:33.070Z,98746.47
2022-09-19T11:26:49.026Z,98739.41
2022-09-19T11:27:54.922Z,98741.56
2022-09-19T11:29:33.548Z,98744.19
2022-09-19T11:30:48.871Z,98743.38
2022-09-19T11:35:47.034Z,98745.78
2022-09-19T11:37:04.307Z,98746.59
2022-09-19T11:39:59.301Z,98746.47
2022-09-19T11:41:21.099Z,98745.78
2022-09-19T11:42:45.962Z,98745.81
2022-09-19T11:44:12.311Z,98749.81
2022-09-19T11:45:17.501Z,98744.38
2022-09-19T11:47:02.419Z,98748.19
2022-09-19T11:48:24.264Z,98749.69
2022-09-19T11:49:59.117Z,98748.34
2022-09-19T11:51:16.679Z,98745.53
2022-09-19T11:52:35.434Z,98742.28
2022-09-19T11:53:54.235Z,98739.28
2022-09-19T11:55:04.410Z,98748.19
2022-09-19T11:56:37.280Z,98747.19
2022-09-19T11:58:01.413Z,98745.53
2022-09-19T11:59:41.322Z,98749.16
2022-09-19T12:01:01.368Z,98749.47
2022-09-19T12:02:18.038Z,98749.84
2022-09-19T12:04:07.414Z,98746.34
2022-09-19T12:05:57.337Z,98746.84
2022-09-19T12:07:36.323Z,98742.97
2022-09-19T12:08:49.910Z,98749.88
2022-09-19T12:10:18.007Z,98738.69
2022-09-19T12:11:27.681Z,98734.09
2022-09-19T12:12:33.665Z,98749.78
2022-09-19T12:13:58.657Z,98745.66
2022-09-19T12:15:20.088Z,98741.22
2022-09-19T12:16:47.199Z,98736.94
2022-09-19T12:17:59.561Z,98741.56
2022-09-19T12:19:14.320Z,98736.63
2022-09-19T12:20:28.999Z,98745.25
2022-09-19T12:21:43.968Z,98743.78
2022-09-19T12:23:24.425Z,98747.06
2022-09-19T12:24:31.781Z,98743.44
2022-09-19T12:25:33.375Z,98749.19
2022-09-19T12:26:46.694Z,98742.44
2022-09-19T12:28:03.450Z,98742.91
2022-09-19T12:29:17.503Z,98744.38
2022-09-19T12:30:21.024Z,98750.13
2022-09-19T12:31:32.157Z,98740.94
2022-09-19T12:32:47.405Z,98749.03
2022-09-19T12:34:02.584Z,98755.63
2022-09-19T12:35:27.403Z,98742.41
2022-09-19T12:36:43.914Z,98747.22
2022-09-19T12:38:25.127Z,98745.25
2022-09-19T12:39:31.658Z,98752.66
2022-09-19T12:41:15.056Z,98748.91
2022-09-19T12:42:30.167Z,98755.50
2022-09-19T12:43:43.171Z,98752.19
2022-09-19T12:45:00.349Z,98754.56
2022-09-19T12:46:38.677Z,98752.72
2022-09-19T12:48:03.644Z,98747.28
2022-09-19T12:49:17.551Z,98750.28
2022-09-19T12:50:35.771Z,98752.09
2022-09-19T12:52:20.783Z,98753.56
2022-09-19T12:53:45.794Z,98750.13
2022-09-19T12:54:51.990Z,98747.63
2022-09-19T12:55:57.505Z,98755.06
2022-09-19T12:57:09.424Z,98754.91
2022-09-19T12:58:18.630Z,98758.19
2022-09-19T12:59:23.719Z,98765.78
2022-09-19T13:00:25.233Z,98768.44
2022-09-19T13:01:36.300Z,98768.44
2022-09-19T13:03:13.565Z,98775.78
2022-09-19T13:04:30.670Z,98771.25
2022-09-19T13:05:38.432Z,98767.25
2022-09-19T13:06:41.855Z,98772.16
2022-09-19T13:07:51.969Z,98767.50
2022-09-19T13:09:16.340Z,98766.09
2022-09-19T13:10:28.618Z,98772.22
2022-09-19T13:11:52.191Z,98770.91
2022-09-19T13:13:15.784Z,98777.25
2022-09-19T13:14:32.393Z,98779.94
2022-09-19T13:15:52.229Z,98777.31
2022-09-19T13:16:59.733Z,98774.81
2022-09-19T13:18:02.242Z,98771.19
2022-09-19T13:19:04.103Z,98774.00
2022-09-19T13:20:16.961Z,98771.91
2022-09-19T13:21:20.864Z,98766.97
2022-09-19T13:22:22.798Z,98766.44
2022-09-19T13:23:28.644Z,98772.22
2022-09-19T13:24:42.144Z,98766.63
2022-09-19T13:25:43.628Z,98768.81
2022-09-19T13:26:53.983Z,98770.47
2022-09-19T13:28:24.735Z,98772.28
2022-09-19T13:29:26.095Z,98766.34
2022-09-19T13:30:46.182Z,98772.63
2022-09-19T13:31:50.432Z,98774.81
2022-09-19T13:32:56.349Z,98761.16
2022-09-19T13:33:58.507Z,98768.88
2022-09-19T13:35:12.343Z,98763.75
2022-09-19T13:36:18.290Z,98763.28
2022-09-19T13:37:28.602Z,98771.19
2022-09-19T13:38:40.606Z,98776.97
2022-09-19T13:39:56.411Z,98775.00
2022-09-19T13:41:11.021Z,98777.34
2022-09-19T13:42:23.033Z,98782.97
2022-09-19T13:43:36.999Z,98777.53
2022-09-19T13:44:45.562Z,98781.53
2022-09-19T13:46:01.136Z,98783.31
2022-09-19T13:47:13.017Z,98791.91
2022-09-19T13:48:55.811Z,98797.50
2022-09-19T13:50:06.283Z,98804.69
2022-09-19T13:51:33.473Z,98797.31
2022-09-19T13:52:43.116Z,98799.69
2022-09-19T13:53:46.557Z,98801.47
2022-09-19T13:54:50.928Z,98808.41
2022-09-19T13:56:00.613Z,98808.72
2022-09-19T13:57:05.671Z,98803.84